createdAt,value
2022-07-29T00:00:31.238Z,0.90
2022-07-29T00:05:33.362Z,0.93
2022-07-29T00:10:36.532Z,0.88
2022-07-29T00:15:38.726Z,0.90
2022-07-29T00:20:40.777Z,0.90
2022-07-29T00:25:42.811Z,0.90
2022-07-29T00:30:44.887Z,0.73
2022-07-29T00:35:48.641Z,1.20
2022-07-29T00:40:50.697Z,0.70
2022-07-29T00:45:52.808Z,1.20
2022-07-29T00:50:56.865Z,1.13
2022-07-29T00:55:59.531Z,1.15
2022-07-29T01:01:01.758Z,1.00
2022-07-29T01:06:04.177Z,1.02
2022-07-29T01:11:06.274Z,0.80
2022-07-29T01:16:26.688Z,1.00
2022-07-29T01:21:51.249Z,1.30
2022-07-29T01:27:25.396Z,1.08
2022-07-29T01:32:29.903Z,1.40
2022-07-29T01:37:45.173Z,1.15
2022-07-29T01:42:52.482Z,1.02
2022-07-29T01:48:07.772Z,1.10
2022-07-29T01:53:11.569Z,0.88
2022-07-29T01:58:15.184Z,1.17
2022-07-29T02:03:19.610Z,1.20
2022-07-29T02:08:22.919Z,1.10
2022-07-29T02:13:28.748Z,1.05
2022-07-29T02:18:31.863Z,1.00
2022-07-29T02:23:51.101Z,1.00
2022-07-29T02:28:57.179Z,1.40
2022-07-29T02:34:00.750Z,1.10
2022-07-29T02:39:04.245Z,1.42
2022-07-29T02:44:11.017Z,1.50
2022-07-29T02:49:21.877Z,1.10
2022-07-29T02:54:38.006Z,1.23
2022-07-29T02:59:44.254Z,1.25
2022-07-29T03:04:47.759Z,1.08
2022-07-29T03:09:51.580Z,1.33
2022-07-29T03:14:54.364Z,1.00
2022-07-29T03:19:56.684Z,1.40
2022-07-29T03:24:58.691Z,1.38
2022-07-29T03:30:00.785Z,1.73
2022-07-29T03:35:04.129Z,1.30
2022-07-29T03:40:09.607Z,1.50
2022-07-29T03:45:16.493Z,1.50
2022-07-29T03:50:21.032Z,1.48
2022-07-29T03:55:23.210Z,1.33
2022-07-29T04:00:27.613Z,1.50
2022-07-29T04:05:29.900Z,1.40
2022-07-29T04:10:34.082Z,1.52
2022-07-29T04:15:38.099Z,1.42
2022-07-29T04:20:40.200Z,1.98
2022-07-29T04:25:43.022Z,1.70
2022-07-29T04:30:45.119Z,2.67
2022-07-29T04:35:50.623Z,1.85
2022-07-29T04:40:57.041Z,1.83
2022-07-29T04:45:59.296Z,2.25
2022-07-29T04:51:01.398Z,1.80
2022-07-29T04:56:03.861Z,2.53
2022-07-29T05:01:06.096Z,2.40
2022-07-29T05:06:08.206Z,2.38
2022-07-29T05:11:12.182Z,2.15
2022-07-29T05:16:15.659Z,2.03
2022-07-29T05:21:17.717Z,1.85
2022-07-29T05:26:19.795Z,2.40
2022-07-29T05:31:21.838Z,2.20
2022-07-29T05:36:23.895Z,2.08
2022-07-29T05:41:26.680Z,2.33
2022-07-29T05:46:29.348Z,2.25
2022-07-29T05:51:31.464Z,2.08
2022-07-29T05:56:33.586Z,2.38
2022-07-29T06:01:40.128Z,2.13
2022-07-29T06:06:48.634Z,2.20
2022-07-29T06:12:06.519Z,2.17
2022-07-29T06:17:17.531Z,1.90
2022-07-29T06:22:19.668Z,2.15
2022-07-29T06:27:21.761Z,1.88
2022-07-29T06:32:23.951Z,2.20
2022-07-29T06:37:29.618Z,2.05
2022-07-29T06:42:34.661Z,1.88
2022-07-29T06:47:36.710Z,2.72
2022-07-29T06:52:39.848Z,2.55
2022-07-29T06:57:42.039Z,2.42
2022-07-29T07:02:44.166Z,2.28
2022-07-29T07:07:46.289Z,2.50
2022-07-29T07:12:48.331Z,2.28
2022-07-29T07:17:50.417Z,2.40
2022-07-29T07:22:52.420Z,2.55
2022-07-29T07:27:54.499Z,2.80
2022-07-29T07:32:56.547Z,2.53
2022-07-29T07:37:58.992Z,2.10
2022-07-29T07:43:01.000Z,2.13
2022-07-29T07:48:03.064Z,2.22
2022-07-29T07:53:05.375Z,2.45
2022-07-29T07:58:07.522Z,3.15
2022-07-29T08:03:16.848Z,2.78
2022-07-29T08:08:19.602Z,2.30
2022-07-29T08:13:23.394Z,3.05
2022-07-29T08:18:26.126Z,2.38
2022-07-29T08:23:45.952Z,2.60
2022-07-29T08:28:51.873Z,2.47
2022-07-29T08:33:53.966Z,4.13
2022-07-29T08:38:56.189Z,2.63
2022-07-29T08:43:58.404Z,2.70
2022-07-29T08:49:00.630Z,2.80
2022-07-29T08:54:03.590Z,2.80
2022-07-29T08:59:06.517Z,2.70
2022-07-29T09:04:12.273Z,2.80
2022-07-29T09:09:15.024Z,2.50
2022-07-29T09:14:17.178Z,2.90
2022-07-29T09:19:35.728Z,2.58
2022-07-29T09:24:43.109Z,2.20
2022-07-29T09:29:45.228Z,2.00
2022-07-29T09:34:47.446Z,2.28
2022-07-29T09:39:49.507Z,1.73
2022-07-29T09:44:51.601Z,2.03
2022-07-29T09:49:59.960Z,1.63
2022-07-29T09:55:09.666Z,1.70
2022-07-29T10:00:20.247Z,2.63
2022-07-29T10:05:36.627Z,1.58
2022-07-29T10:10:42.595Z,1.85
2022-07-29T10:15:46.778Z,1.60
2022-07-29T10:20:49.271Z,1.70
2022-07-29T10:25:51.343Z,1.65
2022-07-29T10:31:02.635Z,1.42
2022-07-29T10:36:39.017Z,1.73
2022-07-29T10:42:02.122Z,1.52
2022-07-29T10:47:05.921Z,1.38
2022-07-29T10:52:10.445Z,1.52
2022-07-29T10:57:52.463Z,1.60
2022-07-29T11:02:55.967Z,1.48
2022-07-29T11:08:25.288Z,1.63
2022-07-29T11:13:47.303Z,1.15
2022-07-29T11:19:13.455Z,1.15
2022-07-29T11:24:29.213Z,0.85
2022-07-29T11:29:32.966Z,1.10
2022-07-29T11:34:42.792Z,1.10
2022-07-29T11:39:54.198Z,1.20
2022-07-29T11:45:43.056Z,0.95
2022-07-29T11:50:45.734Z,0.90
2022-07-29T11:55:56.214Z,0.98
2022-07-29T12:01:04.315Z,1.00
2022-07-29T12:06:15.121Z,0.98
2022-07-29T12:11:20.574Z,1.00
2022-07-29T12:16:26.150Z,1.10
2022-07-29T12:21:57.048Z,1.10
2022-07-29T12:27:02.662Z,1.25
2022-07-29T12:32:14.504Z,1.23
2022-07-29T12:37:17.615Z,0.90
2022-07-29T12:42:19.712Z,1.17
2022-07-29T12:47:23.721Z,1.27
2022-07-29T12:52:34.250Z,1.45
2022-07-29T12:57:53.092Z,1.23
2022-07-29T13:02:57.178Z,1.55
2022-07-29T13:08:20.425Z,1.50
2022-07-29T13:13:24.480Z,1.20
2022-07-29T13:18:36.240Z,1.40
2022-07-29T13:23:38.581Z,1.30
2022-07-29T13:29:06.007Z,0.82
2022-07-29T13:34:08.022Z,1.10
2022-07-29T13:39:12.208Z,1.08
2022-07-29T13:44:16.541Z,0.90
2022-07-29T13:49:18.882Z,1.02
2022-07-29T13:54:21.159Z,1.27
2022-07-29T13:59:23.167Z,1.00
2022-07-29T14:04:25.278Z,1.13
2022-07-29T14:09:27.338Z,1.10
2022-07-29T14:14:30.287Z,0.80
2022-07-29T14:19:36.154Z,1.10
2022-07-29T14:24:38.928Z,1.13
2022-07-29T14:29:41.044Z,1.23
2022-07-29T14:34:43.352Z,1.40
2022-07-29T14:39:45.395Z,1.00
2022-07-29T14:44:48.761Z,1.10
2022-07-29T14:49:51.349Z,1.40
2022-07-29T14:54:53.430Z,1.30
2022-07-29T14:59:55.557Z,1.23
2022-07-29T15:04:57.572Z,1.55
2022-07-29T15:09:59.834Z,1.30
2022-07-29T15:15:01.906Z,1.45
2022-07-29T15:20:06.277Z,1.65
2022-07-29T15:25:08.582Z,1.40
2022-07-29T15:30:11.576Z,1.58
2022-07-29T15:35:39.968Z,1.70
2022-07-29T15:40:44.169Z,1.70
2022-07-29T15:46:06.305Z,1.70
2022-07-29T15:51:08.479Z,1.70
2022-07-29T15:56:10.538Z,1.50
2022-07-29T16:01:12.978Z,1.50
2022-07-29T16:06:15.236Z,1.75
2022-07-29T16:11:17.295Z,1.95
2022-07-29T16:16:19.440Z,1.77
2022-07-29T16:21:23.822Z,1.98
2022-07-29T16:26:25.824Z,1.73
2022-07-29T16:31:28.089Z,1.88
2022-07-29T16:36:30.308Z,1.52
2022-07-29T16:41:32.444Z,1.83
2022-07-29T16:46:37.278Z,2.13
2022-07-29T16:51:41.107Z,2.05
2022-07-29T16:56:44.822Z,1.90
2022-07-29T17:01:47.056Z,1.77
2022-07-29T17:06:50.413Z,1.52
2022-07-29T17:11:55.968Z,1.52
2022-07-29T17:17:01.141Z,1.88
2022-07-29T17:22:14.313Z,1.60
2022-07-29T17:27:20.609Z,1.40
2022-07-29T17:32:22.762Z,1.40
2022-07-29T17:37:24.804Z,1.42
2022-07-29T17:42:26.811Z,1.30
2022-07-29T17:47:28.864Z,1.63
2022-07-29T17:52:31.169Z,1.40
2022-07-29T17:57:34.037Z,1.50
2022-07-29T18:02:38.468Z,1.60
2022-07-29T18:07:40.878Z,1.23
2022-07-29T18:12:42.964Z,1.70
2022-07-29T18:17:56.857Z,1.42
2022-07-29T18:23:00.847Z,1.55
2022-07-29T18:28:03.995Z,1.70
2022-07-29T18:33:21.600Z,1.50
2022-07-29T18:38:24.313Z,1.27
2022-07-29T18:43:26.627Z,1.45
2022-07-29T18:48:33.910Z,1.50
2022-07-29T18:53:37.036Z,1.33
2022-07-29T18:58:41.268Z,1.35
2022-07-29T19:03:43.463Z,1.20
2022-07-29T19:08:45.574Z,1.20
2022-07-29T19:13:47.683Z,2.03
2022-07-29T19:18:49.763Z,1.00
2022-07-29T19:24:05.176Z,1.33
2022-07-29T19:29:15.172Z,1.50
2022-07-29T19:34:17.269Z,1.27
2022-07-29T19:39:19.395Z,1.20
2022-07-29T19:44:37.456Z,1.20
2022-07-29T19:49:40.472Z,1.75
2022-07-29T19:54:42.508Z,1.65
2022-07-29T19:59:44.542Z,1.40
2022-07-29T20:04:46.627Z,1.35
2022-07-29T20:09:49.284Z,1.20
2022-07-29T20:14:51.385Z,1.10
2022-07-29T20:19:53.995Z,1.40
2022-07-29T20:24:57.305Z,1.50
2022-07-29T20:29:59.448Z,1.40
2022-07-29T20:35:01.510Z,0.90
2022-07-29T20:40:06.463Z,1.40
2022-07-29T20:45:14.677Z,2.05
2022-07-29T20:50:23.722Z,1.63
2022-07-29T20:55:26.625Z,1.50
2022-07-29T21:00:28.764Z,1.95
2022-07-29T21:05:30.919Z,1.75
2022-07-29T21:10:32.945Z,1.67
2022-07-29T21:15:35.335Z,1.50
2022-07-29T21:20:37.418Z,1.65
2022-07-29T21:25:39.480Z,1.55
2022-07-29T21:30:41.483Z,1.58
2022-07-29T21:36:01.902Z,1.48
2022-07-29T21:41:06.031Z,1.92
2022-07-29T21:46:10.968Z,1.80
2022-07-29T21:51:13.115Z,1.85
2022-07-29T21:56:15.290Z,2.00
2022-07-29T22:01:20.102Z,2.15
2022-07-29T22:06:22.161Z,2.35
2022-07-29T22:11:24.268Z,2.50
2022-07-29T22:16:26.319Z,2.33
2022-07-29T22:21:28.385Z,2.38
2022-07-29T22:26:30.484Z,2.38
2022-07-29T22:31:32.554Z,2.40
2022-07-29T22:36:34.615Z,2.38
2022-07-29T22:41:36.600Z,2.60
2022-07-29T22:46:38.680Z,2.88
2022-07-29T22:51:40.687Z,2.85
2022-07-29T22:56:42.768Z,2.85
2022-07-29T23:01:44.800Z,2.67
2022-07-29T23:06:46.851Z,2.83
2022-07-29T23:11:48.974Z,3.28
2022-07-29T23:16:51.217Z,2.95
2022-07-29T23:21:53.276Z,3.13
2022-07-29T23:26:55.408Z,3.63
2022-07-29T23:31:57.415Z,3.70
2022-07-29T23:36:59.709Z,3.58
2022-07-29T23:42:02.825Z,4.20
2022-07-29T23:47:04.967Z,3.90
2022-07-29T23:52:06.971Z,3.67
2022-07-29T23:57:09.105Z,4.10
